createdAt,value
2023-10-18T00:00:45.122Z,0.27
2023-10-18T00:05:52.481Z,0.30
2023-10-18T00:11:03.148Z,0.34
2023-10-18T00:16:11.079Z,0.32
2023-10-18T00:21:16.819Z,0.30
2023-10-18T00:26:23.938Z,0.24
2023-10-18T00:31:32.217Z,0.24
2023-10-18T00:36:39.465Z,0.29
2023-10-18T00:41:46.675Z,0.39
2023-10-18T00:46:55.488Z,0.48
2023-10-18T00:52:02.894Z,0.61
2023-10-18T00:57:10.831Z,0.74
2023-10-18T01:02:20.621Z,0.86
2023-10-18T01:07:29.124Z,0.95
2023-10-18T01:12:36.921Z,1.07
2023-10-18T01:17:46.589Z,1.23
2023-10-18T01:22:53.870Z,1.40
2023-10-18T01:28:02.191Z,1.54
2023-10-18T01:33:11.811Z,1.65
2023-10-18T01:38:21.357Z,1.74
2023-10-18T01:43:29.599Z,1.85
2023-10-18T01:48:39.382Z,1.99
2023-10-18T01:53:52.253Z,2.13
2023-10-18T01:58:59.811Z,2.23
2023-10-18T02:04:13.055Z,2.26
2023-10-18T02:09:21.836Z,2.25
2023-10-18T02:14:30.205Z,2.30
2023-10-18T02:19:38.332Z,2.45
2023-10-18T02:24:45.782Z,2.59
2023-10-18T02:29:53.546Z,2.67
2023-10-18T02:35:00.709Z,2.72
2023-10-18T02:40:30.340Z,2.67
2023-10-18T02:45:37.794Z,2.60
2023-10-18T02:50:46.826Z,2.56
2023-10-18T02:55:57.787Z,2.51
2023-10-18T03:01:07.248Z,2.38
2023-10-18T03:06:15.498Z,2.28
2023-10-18T03:11:23.012Z,2.21
2023-10-18T03:16:41.157Z,2.12
2023-10-18T03:21:49.670Z,2.05
2023-10-18T03:27:07.554Z,1.98
2023-10-18T03:32:21.616Z,1.93
2023-10-18T03:37:31.852Z,1.88
2023-10-18T03:42:39.044Z,1.76
2023-10-18T03:47:59.033Z,1.59
2023-10-18T03:53:09.288Z,1.45
2023-10-18T03:58:23.890Z,1.36
2023-10-18T04:03:31.485Z,1.29
2023-10-18T04:08:38.770Z,1.25
2023-10-18T04:13:46.429Z,1.18
2023-10-18T04:18:54.401Z,1.09
2023-10-18T04:24:00.518Z,0.96
2023-10-18T04:29:11.930Z,0.86
2023-10-18T04:34:21.962Z,0.78
2023-10-18T04:39:29.596Z,0.74
2023-10-18T04:44:36.969Z,0.78
2023-10-18T04:49:51.569Z,0.89
2023-10-18T04:55:06.624Z,1.08
2023-10-18T05:00:36.471Z,1.25
2023-10-18T05:05:46.739Z,1.35
2023-10-18T05:11:18.054Z,1.43
2023-10-18T05:16:28.444Z,1.57
2023-10-18T05:21:39.724Z,1.71
2023-10-18T05:26:55.274Z,1.89
2023-10-18T05:32:11.246Z,2.09
2023-10-18T05:37:20.813Z,2.26
2023-10-18T05:42:28.183Z,2.39
2023-10-18T05:47:35.899Z,2.48
2023-10-18T05:52:50.507Z,2.56
2023-10-18T05:57:58.058Z,2.67
2023-10-18T06:03:08.453Z,2.80
2023-10-18T06:08:15.864Z,2.95
2023-10-18T06:13:23.552Z,3.18
2023-10-18T06:18:38.684Z,3.39
2023-10-18T06:23:55.883Z,3.62
2023-10-18T06:29:10.062Z,3.82
2023-10-18T06:34:19.081Z,3.98
2023-10-18T06:39:29.263Z,4.17
2023-10-18T06:44:44.543Z,4.38
2023-10-18T06:50:15.392Z,4.61
2023-10-18T06:55:37.492Z,4.92
2023-10-18T07:00:47.929Z,5.31
2023-10-18T07:05:57.618Z,5.90
2023-10-18T07:11:19.852Z,6.49
2023-10-18T07:16:40.388Z,7.07
2023-10-18T07:21:46.511Z,7.63
2023-10-18T07:26:54.626Z,8.28
2023-10-18T07:32:08.228Z,8.91
2023-10-18T07:37:26.177Z,9.56
2023-10-18T07:42:36.301Z,10.32
2023-10-18T07:52:55.132Z,11.55
2023-10-18T07:58:05.104Z,11.15
2023-10-18T08:03:12.526Z,10.99
2023-10-18T08:08:20.055Z,11.59
2023-10-18T08:13:29.154Z,12.30
2023-10-18T08:18:43.860Z,13.22
2023-10-18T08:23:51.064Z,14.03
2023-10-18T08:28:59.010Z,14.71
2023-10-18T08:34:07.986Z,15.15
2023-10-18T08:39:17.540Z,15.69
2023-10-18T08:44:26.510Z,16.14
2023-10-18T08:49:45.488Z,16.39
2023-10-18T08:54:54.215Z,16.51
2023-10-18T09:00:18.289Z,16.59
2023-10-18T09:05:26.648Z,16.48
2023-10-18T09:10:50.336Z,16.54
2023-10-18T09:16:03.016Z,16.22
2023-10-18T09:21:19.364Z,15.82
2023-10-18T09:26:28.615Z,15.85
2023-10-18T09:31:35.962Z,15.41
2023-10-18T09:36:56.395Z,14.78
2023-10-18T09:42:04.334Z,13.98
2023-10-18T09:47:12.132Z,13.52
2023-10-18T09:52:20.398Z,13.17
2023-10-18T09:57:34.608Z,12.95
2023-10-18T10:02:42.305Z,12.79
2023-10-18T10:07:49.524Z,12.73
2023-10-18T10:12:59.867Z,12.74
2023-10-18T10:18:12.979Z,12.68
2023-10-18T10:23:22.117Z,12.62
2023-10-18T10:29:09.884Z,12.51
2023-10-18T10:34:28.142Z,12.37
2023-10-18T10:39:37.247Z,12.45
2023-10-18T10:45:11.139Z,12.74
2023-10-18T10:50:52.583Z,13.06
2023-10-18T10:56:18.547Z,13.31
2023-10-18T11:02:07.888Z,13.49
2023-10-18T11:07:23.204Z,13.65
2023-10-18T11:12:34.483Z,13.74
2023-10-18T11:17:43.968Z,13.73
2023-10-18T11:22:52.656Z,13.67
2023-10-18T11:28:22.457Z,13.50
2023-10-18T11:33:48.403Z,13.40
2023-10-18T11:39:13.755Z,13.16
2023-10-18T11:44:32.685Z,12.90
2023-10-18T11:49:42.074Z,12.77
2023-10-18T11:54:51.333Z,12.68
2023-10-18T12:00:19.949Z,12.64
2023-10-18T12:05:29.373Z,12.59
2023-10-18T12:10:37.057Z,12.58
2023-10-18T12:15:44.606Z,12.66
2023-10-18T12:20:52.916Z,12.72
2023-10-18T12:26:07.419Z,12.75
2023-10-18T12:31:15.304Z,12.74
2023-10-18T12:36:33.666Z,12.71
2023-10-18T12:41:42.010Z,12.71
2023-10-18T12:46:51.972Z,12.73
2023-10-18T12:52:02.367Z,12.74
2023-10-18T12:57:15.494Z,12.77
2023-10-18T13:02:37.348Z,12.82
2023-10-18T13:07:45.764Z,12.86
2023-10-18T13:12:55.458Z,12.78
2023-10-18T13:18:02.882Z,12.75
2023-10-18T13:23:10.121Z,12.76
2023-10-18T13:28:26.127Z,12.80
2023-10-18T13:33:35.214Z,12.78
2023-10-18T13:38:43.036Z,12.69
2023-10-18T13:43:56.840Z,12.62
2023-10-18T13:49:09.499Z,12.59
2023-10-18T13:54:16.817Z,12.59
2023-10-18T13:59:24.216Z,12.59
2023-10-18T14:04:34.381Z,12.64
2023-10-18T14:09:45.434Z,12.69
2023-10-18T14:14:54.111Z,12.69
2023-10-18T14:20:15.800Z,12.68
2023-10-18T14:25:23.907Z,12.67
2023-10-18T14:30:35.630Z,12.64
2023-10-18T14:35:42.934Z,12.59
2023-10-18T14:41:03.678Z,12.52
2023-10-18T14:46:23.309Z,12.43
2023-10-18T14:51:37.030Z,12.36
2023-10-18T14:56:46.055Z,12.29
2023-10-18T15:02:10.428Z,12.20
2023-10-18T15:07:24.497Z,12.07
2023-10-18T15:12:32.529Z,11.94
2023-10-18T15:17:41.665Z,11.78
2023-10-18T15:22:49.723Z,11.64
2023-10-18T15:27:57.019Z,11.53
2023-10-18T15:33:04.514Z,11.36
2023-10-18T15:38:11.931Z,11.16
2023-10-18T15:43:19.184Z,10.95
2023-10-18T15:48:27.724Z,10.71
2023-10-18T15:53:41.788Z,10.43
2023-10-18T15:59:02.676Z,10.11
2023-10-18T16:04:10.558Z,9.79
2023-10-18T16:09:19.954Z,9.50
2023-10-18T16:14:30.377Z,9.19
2023-10-18T16:19:38.183Z,8.86
2023-10-18T16:24:45.859Z,8.58
2023-10-18T16:29:54.013Z,8.29
2023-10-18T16:34:59.771Z,8.04
2023-10-18T16:40:09.363Z,7.83
2023-10-18T16:45:18.310Z,7.69
2023-10-18T16:50:28.199Z,7.58
2023-10-18T16:55:37.304Z,7.43
2023-10-18T17:00:44.813Z,7.27
2023-10-18T17:05:56.568Z,7.10
2023-10-18T17:11:04.342Z,6.94
2023-10-18T17:16:14.600Z,6.73
2023-10-18T17:21:22.842Z,6.49
2023-10-18T17:26:28.464Z,6.28
2023-10-18T17:31:37.597Z,6.07
2023-10-18T17:36:44.800Z,5.93
2023-10-18T17:41:54.460Z,5.79
2023-10-18T17:47:02.208Z,5.67
2023-10-18T17:52:10.037Z,5.52
2023-10-18T17:57:19.706Z,5.39
2023-10-18T18:02:27.023Z,5.28
2023-10-18T18:07:34.479Z,5.15
2023-10-18T18:12:41.904Z,5.00
2023-10-18T18:17:49.413Z,4.90
2023-10-18T18:22:56.874Z,4.81
2023-10-18T18:28:04.310Z,4.76
2023-10-18T18:33:11.930Z,4.69
2023-10-18T18:38:19.326Z,4.57
2023-10-18T18:43:29.081Z,4.44
2023-10-18T18:48:36.395Z,4.26
2023-10-18T18:53:43.792Z,4.06
2023-10-18T18:58:51.119Z,3.87
2023-10-18T19:03:58.691Z,3.78
2023-10-18T19:09:06.578Z,3.78
2023-10-18T19:14:13.984Z,3.78
2023-10-18T19:19:22.621Z,3.67
2023-10-18T19:24:30.036Z,3.50
2023-10-18T19:29:37.439Z,3.33
2023-10-18T19:34:44.799Z,3.24
2023-10-18T19:39:51.983Z,3.20
2023-10-18T19:45:00.440Z,3.18
2023-10-18T19:50:10.884Z,3.09
2023-10-18T19:55:19.263Z,2.99
2023-10-18T20:00:29.108Z,2.88
2023-10-18T20:05:43.994Z,2.78
2023-10-18T20:10:53.369Z,2.67
2023-10-18T20:16:00.617Z,2.60
2023-10-18T20:21:08.854Z,2.51
2023-10-18T20:26:20.810Z,2.43
2023-10-18T20:31:29.136Z,2.37
2023-10-18T20:36:36.397Z,2.27
2023-10-18T20:41:45.081Z,2.16
2023-10-18T20:46:52.616Z,1.99
2023-10-18T20:52:01.123Z,1.86
2023-10-18T21:02:20.712Z,1.80
2023-10-18T21:07:27.985Z,1.83
2023-10-18T21:12:37.833Z,1.84
2023-10-18T21:17:46.744Z,1.85
2023-10-18T21:22:58.382Z,1.88
2023-10-18T21:28:06.719Z,1.89
2023-10-18T21:33:17.002Z,1.88
2023-10-18T21:38:24.195Z,1.91
2023-10-18T21:43:32.581Z,1.95
2023-10-18T21:48:40.610Z,2.06
2023-10-18T21:53:46.656Z,2.21
2023-10-18T21:58:54.414Z,2.31
2023-10-18T22:04:05.141Z,2.37
2023-10-18T22:09:33.024Z,2.39
2023-10-18T22:14:44.454Z,2.44
2023-10-18T22:19:52.638Z,2.55
2023-10-18T22:25:00.115Z,2.68
2023-10-18T22:30:20.785Z,2.82
2023-10-18T22:35:27.961Z,2.96
2023-10-18T22:40:37.089Z,2.99
2023-10-18T22:45:53.035Z,3.00
2023-10-18T22:51:10.838Z,3.01
2023-10-18T22:56:30.636Z,3.01
2023-10-18T23:01:39.278Z,3.06
2023-10-18T23:06:48.462Z,3.13
2023-10-18T23:11:59.134Z,3.27
2023-10-18T23:17:13.543Z,3.37
2023-10-18T23:22:25.318Z,3.40
2023-10-18T23:27:50.460Z,3.47
2023-10-18T23:33:02.143Z,3.60
2023-10-18T23:38:19.048Z,3.71
2023-10-18T23:43:44.367Z,3.80
2023-10-18T23:49:26.204Z,3.84
2023-10-18T23:54:37.813Z,3.86
2023-10-18T23:59:49.399Z,3.79
